Time,TemperatureF,DewpointF,PressureIn,WindDirection,WindDirectionDegrees,WindSpeedMPH,WindSpeedGustMPH,Humidity,HourlyPrecipIn,Conditions,Clouds,dailyrainin,SoftwareType,DateUTC
2013-10-10 00:00:00,46.0,45.5,29.96,WNW,284,0.0,0.0,98,0.00,,,0.00,Wunderground v.1.15,2013-10-10 07:00:00,
2013-10-10 00:10:00,45.5,44.7,29.96,WNW,284,0.0,1.0,97,0.00,,,0.00,Wunderground v.1.15,2013-10-10 07:10:00,
2013-10-10 00:20:00,45.4,44.9,29.96,WNW,284,0.0,0.0,98,0.00,,,0.00,Wunderground v.1.15,2013-10-10 07:20:00,
2013-10-10 00:30:00,45.2,44.7,29.96,WNW,284,0.0,0.0,98,0.00,,,0.00,Wunderground v.1.15,2013-10-10 07:30:00,
2013-10-10 00:40:00,45.3,44.8,29.95,WNW,284,0.0,0.0,98,0.00,,,0.00,Wunderground v.1.15,2013-10-10 07:40:00,
2013-10-10 00:50:00,45.4,44.9,29.95,WNW,284,0.0,0.0,98,0.00,,,0.00,Wunderground v.1.15,2013-10-10 07:50:00,
2013-10-10 00:55:00,45.4,44.9,29.96,WNW,284,0.0,0.0,98,0.00,,,0.00,Wunderground v.1.15,2013-10-10 07:55:00,
2013-10-10 01:01:00,45.3,44.8,29.96,WNW,284,0.0,0.0,98,0.00,,,0.00,Wunderground v.1.15,2013-10-10 08:01:00,
2013-10-10 01:10:00,45.2,44.7,29.96,WNW,284,0.0,0.0,98,0.00,,,0.00,Wunderground v.1.15,2013-10-10 08:10:00,
2013-10-10 01:20:00,45.1,44.6,29.95,WNW,284,0.0,0.0,98,0.00,,,0.00,Wunderground v.1.15,2013-10-10 08:20:00,
2013-10-10 01:30:00,45.0,44.5,29.95,WNW,284,0.0,0.0,98,0.00,,,0.00,Wunderground v.1.15,2013-10-10 08:30:00,
2013-10-10 01:40:00,44.9,44.4,29.95,WNW,284,0.0,0.0,98,0.00,,,0.00,Wunderground v.1.15,2013-10-10 08:40:00,
2013-10-10 01:45:00,44.8,44.3,29.95,WNW,284,0.0,0.0,98,0.00,,,0.00,Wunderground v.1.15,2013-10-10 08:45:00,
2013-10-10 01:55:00,44.8,44.3,29.95,WNW,284,0.0,0.0,98,0.00,,,0.00,Wunderground v.1.15,2013-10-10 08:55:00,
2013-10-10 02:00:00,44.8,44.3,29.95,WNW,284,0.0,0.0,98,0.00,,,0.00,Wunderground v.1.15,2013-10-10 09:00:00,
2013-10-10 02:10:00,44.7,44.2,29.96,WNW,284,0.0,0.0,98,0.00,,,0.00,Wunderground v.1.15,2013-10-10 09:10:00,
2013-10-10 02:15:00,44.6,44.1,29.96,WNW,284,0.0,0.0,98,0.00,,,0.00,Wunderground v.1.15,2013-10-10 09:15:00,
2013-10-10 02:25:00,44.4,43.9,29.96,WNW,284,0.0,0.0,98,0.00,,,0.00,Wunderground v.1.15,2013-10-10 09:25:00,
2013-10-10 02:35:00,44.2,43.7,29.96,WNW,284,0.0,0.0,98,0.00,,,0.00,Wunderground v.1.15,2013-10-10 09:35:00,
2013-10-10 02:45:00,44.3,44.0,29.96,WNW,284,0.0,0.0,99,0.00,,,0.00,Wunderground v.1.15,2013-10-10 09:45:00,
2013-10-10 02:55:00,44.1,43.6,29.96,WNW,284,0.0,0.0,98,0.00,,,0.00,Wunderground v.1.15,2013-10-10 09:55:00,
2013-10-10 03:00:00,44.0,43.5,29.95,WNW,284,0.0,0.0,98,0.00,,,0.00,Wunderground v.1.15,2013-10-10 10:00:00,
2013-10-10 03:10:00,44.0,43.5,29.95,WNW,284,0.0,0.0,98,0.00,,,0.00,Wunderground v.1.15,2013-10-10 10:10:00,
2013-10-10 03:20:00,43.8,43.5,29.95,WNW,284,0.0,0.0,99,0.00,,,0.00,Wunderground v.1.15,2013-10-10 10:20:00,
2013-10-10 03:25:00,43.8,43.5,29.96,WNW,284,0.0,0.0,99,0.00,,,0.00,Wunderground v.1.15,2013-10-10 10:25:00,
2013-10-10 03:35:00,43.6,43.1,29.95,WNW,284,0.0,0.0,98,0.00,,,0.00,Wunderground v.1.15,2013-10-10 10:35:00,
2013-10-10 03:45:00,43.5,43.0,29.95,WNW,284,0.0,0.0,98,0.00,,,0.00,Wunderground v.1.15,2013-10-10 10:45:00,
2013-10-10 03:55:00,43.2,42.7,29.95,WNW,284,0.0,0.0,98,0.00,,,0.00,Wunderground v.1.15,2013-10-10 10:55:00,
2013-10-10 04:00:00,42.9,42.4,29.95,WNW,284,0.0,0.0,98,0.00,,,0.00,Wunderground v.1.15,2013-10-10 11:00:00,
2013-10-10 04:10:00,42.4,41.9,29.95,WNW,284,0.0,0.0,98,0.00,,,0.00,Wunderground v.1.15,2013-10-10 11:10:00,
2013-10-10 04:20:00,42.1,41.6,29.95,WNW,284,0.0,0.0,98,0.00,,,0.00,Wunderground v.1.15,2013-10-10 11:20:00,
2013-10-10 04:30:00,41.9,41.4,29.95,WNW,284,0.0,0.0,98,0.00,,,0.00,Wunderground v.1.15,2013-10-10 11:30:00,
2013-10-10 04:40:00,41.9,41.6,29.95,WNW,284,0.0,0.0,99,0.00,,,0.00,Wunderground v.1.15,2013-10-10 11:40:00,
2013-10-10 04:50:00,42.0,41.7,29.95,WNW,284,0.0,0.0,99,0.00,,,0.00,Wunderground v.1.15,2013-10-10 11:50:00,
2013-10-10 05:00:00,42.2,41.9,29.94,WNW,284,0.0,0.0,99,0.00,,,0.00,Wunderground v.1.15,2013-10-10 12:00:00,
2013-10-10 05:10:00,42.4,42.1,29.95,WNW,284,0.0,0.0,99,0.00,,,0.00,Wunderground v.1.15,2013-10-10 12:10:00,
2013-10-10 05:20:00,42.5,42.2,29.95,WNW,284,0.0,0.0,99,0.00,,,0.00,Wunderground v.1.15,2013-10-10 12:20:00,
2013-10-10 05:30:00,42.4,42.1,29.95,WNW,284,0.0,0.0,99,0.00,,,0.00,Wunderground v.1.15,2013-10-10 12:30:00,
2013-10-10 05:40:00,42.3,42.0,29.95,WNW,284,0.0,0.0,99,0.00,,,0.00,Wunderground v.1.15,2013-10-10 12:40:00,
2013-10-10 05:50:00,42.3,42.0,29.95,WNW,284,0.0,0.0,99,0.00,,,0.00,Wunderground v.1.15,2013-10-10 12:50:00,
2013-10-10 05:55:00,42.4,42.1,29.95,WNW,284,0.0,0.0,99,0.00,,,0.00,Wunderground v.1.15,2013-10-10 12:55:00,
2013-10-10 06:00:00,42.4,42.1,29.95,WNW,284,0.0,0.0,99,0.00,,,0.00,Wunderground v.1.15,2013-10-10 13:00:00,
2013-10-10 06:10:00,42.4,42.1,29.95,WNW,284,0.0,0.0,99,0.00,,,0.00,Wunderground v.1.15,2013-10-10 13:10:00,
2013-10-10 06:20:00,42.3,42.0,29.95,WNW,284,0.0,0.0,99,0.00,,,0.00,Wunderground v.1.15,2013-10-10 13:20:00,
2013-10-10 06:30:00,42.0,41.7,29.95,WNW,284,0.0,0.0,99,0.00,,,0.00,Wunderground v.1.15,2013-10-10 13:30:00,
2013-10-10 06:40:00,41.9,41.6,29.96,WNW,284,0.0,0.0,99,0.00,,,0.00,Wunderground v.1.15,2013-10-10 13:40:00,
2013-10-10 06:50:00,41.7,41.4,29.96,WNW,284,0.0,0.0,99,0.00,,,0.00,Wunderground v.1.15,2013-10-10 13:50:00,
2013-10-10 06:55:00,41.7,41.4,29.97,WNW,284,0.0,0.0,99,0.00,,,0.00,Wunderground v.1.15,2013-10-10 13:55:00,
2013-10-10 07:00:00,41.6,41.3,29.96,WNW,284,0.0,0.0,99,0.00,,,0.00,Wunderground v.1.15,2013-10-10 14:00:00,
2013-10-10 07:10:00,41.4,41.1,29.97,WNW,284,0.0,0.0,99,0.00,,,0.00,Wunderground v.1.15,2013-10-10 14:10:00,
2013-10-10 07:15:00,41.3,41.0,29.97,WNW,284,0.0,0.0,99,0.00,,,0.00,Wunderground v.1.15,2013-10-10 14:15:00,
2013-10-10 07:25:00,41.0,40.7,29.97,WNW,284,0.0,0.0,99,0.00,,,0.00,Wunderground v.1.15,2013-10-10 14:25:00,
2013-10-10 07:30:00,40.9,40.6,29.97,SSW,202,0.0,0.0,99,0.00,,,0.00,Wunderground v.1.15,2013-10-10 14:30:00,
2013-10-10 07:40:00,40.9,40.6,29.97,SSW,202,0.0,0.0,99,0.00,,,0.00,Wunderground v.1.15,2013-10-10 14:40:00,
2013-10-10 07:50:00,41.0,40.7,29.97,SSW,202,0.0,0.0,99,0.00,,,0.00,Wunderground v.1.15,2013-10-10 14:50:00,
2013-10-10 07:55:00,41.1,40.8,29.97,SSW,202,0.0,0.0,99,0.00,,,0.00,Wunderground v.1.15,2013-10-10 14:55:00,
2013-10-10 08:00:00,41.1,40.8,29.97,SSW,202,0.0,0.0,99,0.00,,,0.00,Wunderground v.1.15,2013-10-10 15:00:00,
2013-10-10 08:10:00,41.1,40.8,29.97,SSW,202,0.0,0.0,99,0.00,,,0.00,Wunderground v.1.15,2013-10-10 15:10:00,
2013-10-10 08:20:00,40.8,40.5,29.98,SSW,202,0.0,0.0,99,0.00,,,0.00,Wunderground v.1.15,2013-10-10 15:20:00,
2013-10-10 08:30:00,40.9,40.6,29.98,SSW,202,0.0,0.0,99,0.00,,,0.00,Wunderground v.1.15,2013-10-10 15:30:00,
2013-10-10 08:40:00,41.1,40.8,29.98,SSW,202,0.0,0.0,99,0.00,,,0.01,Wunderground v.1.15,2013-10-10 15:40:00,
2013-10-10 08:50:00,41.6,41.3,29.99,SSW,202,0.0,0.0,99,0.00,,,0.01,Wunderground v.1.15,2013-10-10 15:50:00,
2013-10-10 09:00:00,41.8,41.5,29.99,SSW,202,0.0,0.0,99,0.00,,,0.01,Wunderground v.1.15,2013-10-10 16:00:00,
2013-10-10 09:10:00,42.7,42.7,29.99,SSW,202,0.0,0.0,100,0.00,,,0.01,Wunderground v.1.15,2013-10-10 16:10:00,
2013-10-10 09:15:00,43.3,43.3,29.99,SSW,202,0.0,0.0,100,0.00,,,0.01,Wunderground v.1.15,2013-10-10 16:15:00,
2013-10-10 09:25:00,44.6,44.6,29.99,SSW,202,0.0,0.0,100,0.00,,,0.01,Wunderground v.1.15,2013-10-10 16:25:00,
2013-10-10 09:35:00,45.8,45.8,29.99,North,9,0.0,0.0,100,0.00,,,0.01,Wunderground v.1.15,2013-10-10 16:35:00,
2013-10-10 09:45:00,46.3,46.3,29.99,NW,309,0.0,0.0,100,0.00,,,0.01,Wunderground v.1.15,2013-10-10 16:45:00,
2013-10-10 09:55:00,46.5,46.5,29.99,NW,309,0.0,0.0,100,0.00,,,0.01,Wunderground v.1.15,2013-10-10 16:55:00,
2013-10-10 10:00:00,46.5,46.5,29.99,NW,309,0.0,0.0,100,0.00,,,0.01,Wunderground v.1.15,2013-10-10 17:00:00,
2013-10-10 10:10:00,46.8,46.8,29.99,NW,309,0.0,0.0,100,0.00,,,0.01,Wunderground v.1.15,2013-10-10 17:10:00,
2013-10-10 10:20:00,47.2,46.9,29.99,NW,309,0.0,0.0,99,0.00,,,0.01,Wunderground v.1.15,2013-10-10 17:20:00,
2013-10-10 10:30:00,47.6,47.3,30.00,NW,309,0.0,0.0,99,0.00,,,0.01,Wunderground v.1.15,2013-10-10 17:30:00,
2013-10-10 10:35:00,47.9,47.4,30.00,NW,309,0.0,0.0,98,0.00,,,0.01,Wunderground v.1.15,2013-10-10 17:35:00,
2013-10-10 10:45:00,48.7,48.2,29.99,NW,306,0.0,0.0,98,0.00,,,0.01,Wunderground v.1.15,2013-10-10 17:45:00,
2013-10-10 10:55:00,49.8,49.0,30.00,NW,306,0.0,0.0,97,0.00,,,0.01,Wunderground v.1.15,2013-10-10 17:55:00,
2013-10-10 11:00:00,50.1,48.7,30.00,NW,306,0.0,0.0,95,0.00,,,0.01,Wunderground v.1.15,2013-10-10 18:00:00,
2013-10-10 11:10:00,51.0,49.0,29.99,NW,306,0.0,0.0,93,0.00,,,0.01,Wunderground v.1.15,2013-10-10 18:10:00,
2013-10-10 11:20:00,52.1,49.6,29.99,SE,146,0.0,0.0,91,0.00,,,0.01,Wunderground v.1.15,2013-10-10 18:20:00,
2013-10-10 11:30:00,53.0,49.5,29.99,North,10,0.0,0.0,88,0.00,,,0.01,Wunderground v.1.15,2013-10-10 18:30:00,
2013-10-10 11:40:00,54.2,51.0,29.99,North,5,0.0,0.0,89,0.00,,,0.01,Wunderground v.1.15,2013-10-10 18:40:00,
2013-10-10 11:50:00,55.2,51.1,29.99,West,281,1.0,1.0,86,0.00,,,0.01,Wunderground v.1.15,2013-10-10 18:50:00,
2013-10-10 12:00:00,55.7,50.9,29.99,NNE,20,1.0,1.0,84,0.00,,,0.01,Wunderground v.1.15,2013-10-10 19:00:00,
2013-10-10 12:10:00,56.7,50.9,30.00,NNW,346,1.0,3.0,81,0.00,,,0.01,Wunderground v.1.15,2013-10-10 19:10:00,
2013-10-10 12:20:00,57.3,50.5,29.99,NNE,15,1.0,1.0,78,0.00,,,0.01,Wunderground v.1.15,2013-10-10 19:20:00,
2013-10-10 12:25:00,57.5,45.8,29.99,WNW,292,1.0,1.0,65,0.00,,,0.01,Wunderground v.1.15,2013-10-10 19:25:00,
2013-10-10 12:35:00,58.3,46.6,29.99,West,276,1.0,4.0,65,0.00,,,0.01,Wunderground v.1.15,2013-10-10 19:35:00,
2013-10-10 12:45:00,58.9,48.4,29.99,NNW,347,1.0,1.0,68,0.00,,,0.01,Wunderground v.1.15,2013-10-10 19:45:00,
2013-10-10 12:55:00,59.6,48.2,29.99,WNW,298,1.0,1.0,66,0.00,,,0.01,Wunderground v.1.15,2013-10-10 19:55:00,
2013-10-10 13:00:00,60.1,48.3,29.99,WNW,287,0.0,0.0,65,0.00,,,0.01,Wunderground v.1.15,2013-10-10 20:00:00,
2013-10-10 13:10:00,60.6,47.9,29.99,WNW,286,1.0,3.0,63,0.00,,,0.01,Wunderground v.1.15,2013-10-10 20:10:00,
2013-10-10 13:20:00,61.0,49.6,29.99,WNW,286,1.0,1.0,66,0.00,,,0.01,Wunderground v.1.15,2013-10-10 20:20:00,
2013-10-10 13:25:00,61.2,48.9,29.99,West,265,1.0,1.0,64,0.00,,,0.01,Wunderground v.1.15,2013-10-10 20:25:00,
2013-10-10 13:35:00,61.4,48.3,29.98,WNW,303,1.0,2.0,62,0.00,,,0.01,Wunderground v.1.15,2013-10-10 20:35:00,
2013-10-10 13:45:00,61.9,47.4,29.98,WNW,297,1.0,2.0,59,0.00,,,0.01,Wunderground v.1.15,2013-10-10 20:45:00,
2013-10-10 13:50:00,62.2,47.2,29.98,NW,316,1.0,2.0,58,0.00,,,0.01,Wunderground v.1.15,2013-10-10 20:50:00,
2013-10-10 14:00:00,62.2,46.3,29.98,WSW,254,1.0,3.0,56,0.00,,,0.01,Wunderground v.1.15,2013-10-10 21:00:00,
2013-10-10 14:10:00,62.4,48.3,29.98,WSW,258,2.0,2.0,60,0.00,,,0.01,Wunderground v.1.15,2013-10-10 21:10:00,
2013-10-10 14:15:00,62.5,47.1,29.98,WNW,292,2.0,4.0,57,0.00,,,0.01,Wunderground v.1.15,2013-10-10 21:15:00,
2013-10-10 14:25:00,62.6,47.1,29.98,SSW,205,1.0,2.0,57,0.00,,,0.01,Wunderground v.1.15,2013-10-10 21:25:00,
2013-10-10 14:35:00,62.9,47.9,29.98,NW,323,2.0,4.0,58,0.00,,,0.01,Wunderground v.1.15,2013-10-10 21:35:00,
2013-10-10 14:45:00,62.8,47.8,29.98,NW,315,2.0,4.0,58,0.00,,,0.01,Wunderground v.1.15,2013-10-10 21:45:00,
2013-10-10 14:50:00,62.6,48.1,29.98,West,269,2.0,2.0,59,0.00,,,0.01,Wunderground v.1.15,2013-10-10 21:50:00,
2013-10-10 15:00:00,62.7,49.1,29.98,West,278,3.0,3.0,61,0.00,,,0.01,Wunderground v.1.15,2013-10-10 22:00:00,
2013-10-10 15:10:00,63.0,50.6,29.98,NW,311,2.0,2.0,64,0.00,,,0.01,Wunderground v.1.15,2013-10-10 22:10:00,
2013-10-10 15:20:00,62.8,51.3,29.99,NNW,339,1.0,1.0,66,0.00,,,0.01,Wunderground v.1.15,2013-10-10 22:20:00,
2013-10-10 15:30:00,62.4,50.9,29.99,NNE,13,1.0,1.0,66,0.00,,,0.01,Wunderground v.1.15,2013-10-10 22:30:00,
2013-10-10 15:40:00,61.4,48.7,29.99,West,278,3.0,9.0,63,0.00,,,0.01,Wunderground v.1.15,2013-10-10 22:40:00,
2013-10-10 15:50:00,60.4,46.9,29.99,NW,314,5.0,5.0,61,0.00,,,0.01,Wunderground v.1.15,2013-10-10 22:50:00,
2013-10-10 16:00:00,59.8,46.7,29.99,West,271,4.0,4.0,62,0.00,,,0.01,Wunderground v.1.15,2013-10-10 23:00:00,
2013-10-10 16:10:00,59.8,48.4,30.00,NW,304,3.0,3.0,66,0.00,,,0.01,Wunderground v.1.15,2013-10-10 23:10:00,
2013-10-10 16:20:00,59.8,49.6,30.00,WNW,296,2.0,3.0,69,0.00,,,0.01,Wunderground v.1.15,2013-10-10 23:20:00,
2013-10-10 16:30:00,59.4,50.4,30.00,NW,325,3.0,3.0,72,0.00,,,0.01,Wunderground v.1.15,2013-10-10 23:30:00,
2013-10-10 16:40:00,58.2,51.0,30.00,WNW,302,3.0,3.0,77,0.00,,,0.01,Wunderground v.1.15,2013-10-10 23:40:00,
2013-10-10 16:50:00,57.7,51.2,30.00,WNW,285,4.0,4.0,79,0.00,,,0.01,Wunderground v.1.15,2013-10-10 23:50:00,
2013-10-10 17:00:00,57.5,51.4,30.00,NW,307,3.0,3.0,80,0.00,,,0.01,Wunderground v.1.15,2013-10-11 00:00:00,
2013-10-10 17:10:00,57.2,51.4,30.00,WNW,283,4.0,10.0,81,0.00,,,0.01,Wunderground v.1.15,2013-10-11 00:10:00,
2013-10-10 17:20:00,56.8,51.4,30.00,WNW,300,3.0,3.0,82,0.00,,,0.01,Wunderground v.1.15,2013-10-11 00:20:00,
2013-10-10 17:25:00,56.7,51.6,30.00,WNW,303,2.0,3.0,83,0.00,,,0.01,Wunderground v.1.15,2013-10-11 00:25:00,
2013-10-10 17:35:00,56.4,51.9,30.00,WNW,296,2.0,2.0,85,0.00,,,0.01,Wunderground v.1.15,2013-10-11 00:35:00,
2013-10-10 17:45:00,56.1,52.0,30.00,NW,311,1.0,4.0,86,0.00,,,0.01,Wunderground v.1.15,2013-10-11 00:45:00,
2013-10-10 17:50:00,56.0,51.9,30.00,North,355,2.0,2.0,86,0.00,,,0.01,Wunderground v.1.15,2013-10-11 00:50:00,
2013-10-10 18:01:00,55.7,51.9,30.00,WNW,293,1.0,2.0,87,0.00,,,0.01,Wunderground v.1.15,2013-10-11 01:01:00,
2013-10-10 18:10:00,55.4,51.6,30.01,NNW,333,3.0,3.0,87,0.00,,,0.01,Wunderground v.1.15,2013-10-11 01:10:00,
2013-10-10 18:20:00,55.2,51.7,30.01,WNW,289,2.0,5.0,88,0.00,,,0.01,Wunderground v.1.15,2013-10-11 01:20:00,
2013-10-10 18:25:00,55.1,51.6,30.01,North,355,2.0,2.0,88,0.00,,,0.01,Wunderground v.1.15,2013-10-11 01:25:00,
2013-10-10 18:35:00,54.8,51.6,30.01,WNW,286,1.0,1.0,89,0.00,,,0.01,Wunderground v.1.15,2013-10-11 01:35:00,
2013-10-10 18:45:00,54.5,51.6,30.01,NNW,340,2.0,2.0,90,0.00,,,0.01,Wunderground v.1.15,2013-10-11 01:45:00,
2013-10-10 18:50:00,54.6,52.0,30.01,WNW,298,1.0,2.0,91,0.00,,,0.01,Wunderground v.1.15,2013-10-11 01:50:00,
2013-10-10 19:00:00,54.4,51.8,30.02,WSW,251,2.0,3.0,91,0.00,,,0.01,Wunderground v.1.15,2013-10-11 02:00:00,
2013-10-10 19:10:00,54.2,51.9,30.02,NNW,328,3.0,4.0,92,0.00,,,0.01,Wunderground v.1.15,2013-10-11 02:10:00,
2013-10-10 19:20:00,54.2,51.9,30.02,NW,320,3.0,3.0,92,0.00,,,0.01,Wunderground v.1.15,2013-10-11 02:20:00,
2013-10-10 19:30:00,54.0,51.4,30.03,WNW,286,4.0,4.0,91,0.00,,,0.01,Wunderground v.1.15,2013-10-11 02:30:00,
2013-10-10 19:40:00,53.8,51.5,30.03,NNE,13,2.0,2.0,92,0.00,,,0.01,Wunderground v.1.15,2013-10-11 02:40:00,
2013-10-10 19:50:00,53.6,51.3,30.04,NW,311,1.0,4.0,92,0.00,,,0.01,Wunderground v.1.15,2013-10-11 02:50:00,
2013-10-10 19:55:00,53.6,51.3,30.03,West,273,2.0,5.0,92,0.00,,,0.01,Wunderground v.1.15,2013-10-11 02:55:00,
2013-10-10 20:00:00,53.6,51.3,30.03,WNW,298,1.0,1.0,92,0.00,,,0.01,Wunderground v.1.15,2013-10-11 03:00:00,
2013-10-10 20:10:00,53.5,51.2,30.03,NNW,339,0.0,0.0,92,0.00,,,0.01,Wunderground v.1.15,2013-10-11 03:10:00,
2013-10-10 20:20:00,53.2,50.9,30.03,NNW,345,0.0,0.0,92,0.00,,,0.01,Wunderground v.1.15,2013-10-11 03:20:00,
2013-10-10 20:25:00,53.1,51.1,30.03,NW,315,0.0,0.0,93,0.00,,,0.01,Wunderground v.1.15,2013-10-11 03:25:00,
2013-10-10 20:35:00,53.0,51.3,30.03,WNW,291,0.0,0.0,94,0.00,,,0.01,Wunderground v.1.15,2013-10-11 03:35:00,
2013-10-10 20:45:00,52.9,51.2,30.03,WNW,298,0.0,0.0,94,0.00,,,0.01,Wunderground v.1.15,2013-10-11 03:45:00,
2013-10-10 20:50:00,52.9,51.2,30.04,NNW,335,1.0,1.0,94,0.00,,,0.01,Wunderground v.1.15,2013-10-11 03:50:00,
2013-10-10 21:00:00,52.9,51.2,30.04,NNW,348,1.0,3.0,94,0.00,,,0.01,Wunderground v.1.15,2013-10-11 04:00:00,
2013-10-10 21:05:00,52.9,51.2,30.04,NW,306,1.0,3.0,94,0.00,,,0.01,Wunderground v.1.15,2013-10-11 04:05:00,
2013-10-10 21:10:00,52.9,51.2,30.04,WNW,296,2.0,2.0,94,0.00,,,0.01,Wunderground v.1.15,2013-10-11 04:10:00,
2013-10-10 21:15:00,52.9,51.2,30.04,WNW,300,2.0,2.0,94,0.00,,,0.01,Wunderground v.1.15,2013-10-11 04:15:00,
2013-10-10 21:25:00,52.9,50.9,30.05,WNW,300,3.0,3.0,93,0.00,,,0.01,Wunderground v.1.15,2013-10-11 04:25:00,
2013-10-10 21:30:00,52.9,50.9,30.05,NW,305,2.0,2.0,93,0.00,,,0.01,Wunderground v.1.15,2013-10-11 04:30:00,
2013-10-10 21:35:00,52.8,50.8,30.05,West,281,2.0,2.0,93,0.00,,,0.01,Wunderground v.1.15,2013-10-11 04:35:00,
2013-10-10 21:45:00,52.8,50.8,30.05,WNW,291,2.0,3.0,93,0.00,,,0.01,Wunderground v.1.15,2013-10-11 04:45:00,
2013-10-10 21:50:00,52.8,50.5,30.05,WNW,296,1.0,1.0,92,0.00,,,0.01,Wunderground v.1.15,2013-10-11 04:50:00,
2013-10-10 22:00:00,52.8,50.5,30.05,NW,323,1.0,1.0,92,0.00,,,0.01,Wunderground v.1.15,2013-10-11 05:00:00,
2013-10-10 22:10:00,52.8,50.5,30.06,WNW,294,0.0,2.0,92,0.00,,,0.01,Wunderground v.1.15,2013-10-11 05:10:00,
2013-10-10 22:20:00,52.8,50.5,30.06,WNW,294,0.0,0.0,92,0.00,,,0.01,Wunderground v.1.15,2013-10-11 05:20:00,
2013-10-10 22:30:00,52.7,50.4,30.06,West,271,0.0,0.0,92,0.00,,,0.01,Wunderground v.1.15,2013-10-11 05:30:00,
2013-10-10 22:40:00,52.5,49.9,30.06,West,267,1.0,2.0,91,0.00,,,0.01,Wunderground v.1.15,2013-10-11 05:40:00,
2013-10-10 22:45:00,52.4,49.8,30.06,WNW,286,1.0,2.0,91,0.00,,,0.01,Wunderground v.1.15,2013-10-11 05:45:00,
2013-10-10 22:55:00,52.2,49.4,30.06,WNW,286,0.0,1.0,90,0.00,,,0.01,Wunderground v.1.15,2013-10-11 05:55:00,
2013-10-10 23:00:00,52.2,49.4,30.06,WNW,286,0.0,0.0,90,0.00,,,0.01,Wunderground v.1.15,2013-10-11 06:00:00,
2013-10-10 23:10:00,52.2,49.4,30.07,NNW,343,0.0,0.0,90,0.00,,,0.01,Wunderground v.1.15,2013-10-11 06:10:00,
2013-10-10 23:20:00,52.1,49.0,30.07,NNE,26,0.0,0.0,89,0.00,,,0.01,Wunderground v.1.15,2013-10-11 06:20:00,
2013-10-10 23:30:00,52.1,49.3,30.07,NNE,26,0.0,0.0,90,0.00,,,0.01,Wunderground v.1.15,2013-10-11 06:30:00,
2013-10-10 23:40:00,51.9,49.4,30.07,North,5,0.0,0.0,91,0.00,,,0.01,Wunderground v.1.15,2013-10-11 06:40:00,
2013-10-10 23:45:00,51.7,48.9,30.07,North,5,0.0,0.0,90,0.00,,,0.01,Wunderground v.1.15,2013-10-11 06:45:00,
2013-10-10 23:50:00,51.5,48.7,30.07,North,5,0.0,0.0,90,0.00,,,0.01,Wunderground v.1.15,2013-10-11 06:50:00,